首页
METAR-TAF:

METAR-TAF

机场 :

三亚凤凰国际机场

三亚, 中华人民共和国

纬度: 18-18N, 经度: 109-24E, 海拔: 27米

当前天气观测

该预报发布于55分钟前的01:00 UTC
风速4节,风向东南,在东转东北南转西南之间变化
温度 31°C
湿度 75%
气压 1009 hPa
能见度10公里或以上
少量云层高于1500英尺
散云层高于2000英尺

METAR: ZJSY 260100Z 14002MPS 070V210 9999 FEW015 SCT020 31/26 Q1009 NOSIG

时间: 09:55 (01:55 UTC)

预报

该预报发布于6小时和50分钟前的19:05 UTC
预报有效从26日的 00点(UTC)到 26日的 24点(UTC)
风速8节,风向
能见度10公里或以上
散云层高于2000英尺
短暂存在
从 26日的 06点(UTC)到 26日的 10点(UTC)
散云层高于1600英尺
少量云层高于2500英尺, 积雨云.

TAF: ZJSY 251905Z 2600/2624 18004MPS 9999 SCT020 TX33/2606Z TN27/2621Z TEMPO 2606/2610 SCT016 FEW025CB

超过4000个机场的气象观测和天气预报(METAR&TAF报告)。

可查询的气象台以黄色和红色小点在地图上表示。

将鼠标移到小点上方,可查看气象台名称。

然后点击查看天气观测和预报。

如需切换地图:点击带黑十字的绿色按钮放大地图;点击带横线的绿色按钮缩小地图;或者点击绿色箭头查看邻近地区的地图。


METAR-TAF: